sensor_id;sensor_type;location;lat;lon;timestamp;pressure;altitude;pressure_sealevel;temperature;humidity
11692;BME280;33659;42.672;23.354;2022-12-18T00:01:49;95063.31;;;7.27;86.37
11692;BME280;33659;42.672;23.354;2022-12-18T00:04:20;95073.31;;;7.33;86.02
11692;BME280;33659;42.672;23.354;2022-12-18T00:06:48;95095.69;;;7.35;85.72
11692;BME280;33659;42.672;23.354;2022-12-18T00:09:15;95066.81;;;7.36;85.77
11692;BME280;33659;42.672;23.354;2022-12-18T00:11:42;95086.91;;;7.30;84.90
11692;BME280;33659;42.672;23.354;2022-12-18T00:14:11;95084.31;;;7.17;85.18
11692;BME280;33659;42.672;23.354;2022-12-18T00:16:39;95097.84;;;7.14;84.80
11692;BME280;33659;42.672;23.354;2022-12-18T00:19:06;95047.81;;;7.08;85.14
11692;BME280;33659;42.672;23.354;2022-12-18T00:21:33;95069.38;;;7.09;84.87
11692;BME280;33659;42.672;23.354;2022-12-18T00:24:01;95079.47;;;6.96;84.95
11692;BME280;33659;42.672;23.354;2022-12-18T00:26:30;95093.00;;;6.93;84.87
11692;BME280;33659;42.672;23.354;2022-12-18T00:28:58;95085.13;;;6.85;85.63
11692;BME280;33659;42.672;23.354;2022-12-18T00:31:25;95099.34;;;6.87;85.41
11692;BME280;33659;42.672;23.354;2022-12-18T00:33:53;95123.91;;;6.76;85.22
11692;BME280;33659;42.672;23.354;2022-12-18T00:36:22;95127.56;;;6.75;85.23
11692;BME280;33659;42.672;23.354;2022-12-18T00:38:49;95096.81;;;6.82;85.37
11692;BME280;33659;42.672;23.354;2022-12-18T00:41:18;95106.72;;;6.80;84.81
11692;BME280;33659;42.672;23.354;2022-12-18T00:44:12;95120.06;;;6.73;84.86
11692;BME280;33659;42.672;23.354;2022-12-18T00:46:38;95121.59;;;6.74;84.79
11692;BME280;33659;42.672;23.354;2022-12-18T00:49:05;95115.25;;;6.67;84.78
11692;BME280;33659;42.672;23.354;2022-12-18T00:51:32;95109.34;;;6.61;84.88
11692;BME280;33659;42.672;23.354;2022-12-18T00:53:59;95113.94;;;6.50;84.56
11692;BME280;33659;42.672;23.354;2022-12-18T00:56:27;95143.59;;;6.44;84.53
11692;BME280;33659;42.672;23.354;2022-12-18T00:58:53;95128.53;;;6.46;84.49
11692;BME280;33659;42.672;23.354;2022-12-18T01:01:20;95103.22;;;6.38;84.71
11692;BME280;33659;42.672;23.354;2022-12-18T01:03:47;95137.91;;;6.42;84.59
11692;BME280;33659;42.672;23.354;2022-12-18T01:06:15;95120.44;;;6.48;84.55
11692;BME280;33659;42.672;23.354;2022-12-18T01:08:42;95147.38;;;6.33;84.51
11692;BME280;33659;42.672;23.354;2022-12-18T01:11:10;95162.38;;;6.36;84.57
11692;BME280;33659;42.672;23.354;2022-12-18T01:13:39;95140.16;;;6.30;84.33
11692;BME280;33659;42.672;23.354;2022-12-18T01:16:06;95158.25;;;6.35;84.21
11692;BME280;33659;42.672;23.354;2022-12-18T01:18:34;95164.56;;;6.29;84.48
11692;BME280;33659;42.672;23.354;2022-12-18T01:21:05;95143.31;;;6.27;84.09
11692;BME280;33659;42.672;23.354;2022-12-18T01:23:32;95145.97;;;6.22;84.53
11692;BME280;33659;42.672;23.354;2022-12-18T01:26:04;95149.56;;;6.26;84.65
11692;BME280;33659;42.672;23.354;2022-12-18T01:28:31;95136.28;;;6.09;84.34
11692;BME280;33659;42.672;23.354;2022-12-18T01:31:09;95143.59;;;6.07;84.25
11692;BME280;33659;42.672;23.354;2022-12-18T01:33:36;95150.22;;;5.94;84.67
11692;BME280;33659;42.672;23.354;2022-12-18T01:36:03;95161.91;;;5.91;85.04
11692;BME280;33659;42.672;23.354;2022-12-18T01:38:29;95124.84;;;5.91;85.21
11692;BME280;33659;42.672;23.354;2022-12-18T01:40:57;95164.03;;;5.84;85.17
11692;BME280;33659;42.672;23.354;2022-12-18T01:43:42;95146.78;;;5.75;85.56
11692;BME280;33659;42.672;23.354;2022-12-18T01:46:11;95140.41;;;5.67;85.82
11692;BME280;33659;42.672;23.354;2022-12-18T01:48:38;95167.09;;;5.67;86.20
11692;BME280;33659;42.672;23.354;2022-12-18T01:51:06;95161.91;;;5.67;85.90
11692;BME280;33659;42.672;23.354;2022-12-18T01:53:34;95189.84;;;5.70;85.70
11692;BME280;33659;42.672;23.354;2022-12-18T01:56:01;95146.38;;;5.67;85.81
11692;BME280;33659;42.672;23.354;2022-12-18T01:58:32;95163.44;;;5.68;85.88
11692;BME280;33659;42.672;23.354;2022-12-18T02:01:01;95190.75;;;5.61;85.80
11692;BME280;33659;42.672;23.354;2022-12-18T02:03:29;95169.69;;;5.67;85.88
11692;BME280;33659;42.672;23.354;2022-12-18T02:06:00;95167.34;;;5.66;85.12
11692;BME280;33659;42.672;23.354;2022-12-18T02:08:34;95173.09;;;5.63;85.33
11692;BME280;33659;42.672;23.354;2022-12-18T02:11:07;95203.13;;;5.64;84.98
11692;BME280;33659;42.672;23.354;2022-12-18T02:13:41;95170.97;;;5.65;85.21
11692;BME280;33659;42.672;23.354;2022-12-18T02:16:19;95188.84;;;5.66;85.20
11692;BME280;33659;42.672;23.354;2022-12-18T02:18:50;95185.72;;;5.69;85.06
11692;BME280;33659;42.672;23.354;2022-12-18T02:21:27;95170.16;;;5.69;84.92
11692;BME280;33659;42.672;23.354;2022-12-18T02:24:10;95156.72;;;5.67;84.89
11692;BME280;33659;42.672;23.354;2022-12-18T02:26:46;95184.19;;;5.68;84.85
11692;BME280;33659;42.672;23.354;2022-12-18T02:29:17;95179.81;;;5.64;84.73
11692;BME280;33659;42.672;23.354;2022-12-18T02:31:47;95193.53;;;5.64;85.06
11692;BME280;33659;42.672;23.354;2022-12-18T02:34:17;95179.84;;;5.59;85.13
11692;BME280;33659;42.672;23.354;2022-12-18T02:36:45;95187.59;;;5.64;84.99
11692;BME280;33659;42.672;23.354;2022-12-18T02:39:13;95179.31;;;5.62;84.88
11692;BME280;33659;42.672;23.354;2022-12-18T02:41:43;95178.31;;;5.58;85.06
11692;BME280;33659;42.672;23.354;2022-12-18T02:44:11;95204.28;;;5.53;85.35
11692;BME280;33659;42.672;23.354;2022-12-18T02:46:41;95184.50;;;5.62;84.73
11692;BME280;33659;42.672;23.354;2022-12-18T02:49:21;95219.28;;;5.56;84.88
11692;BME280;33659;42.672;23.354;2022-12-18T02:51:53;95200.38;;;5.55;84.97
11692;BME280;33659;42.672;23.354;2022-12-18T02:54:33;95195.78;;;5.47;85.14
11692;BME280;33659;42.672;23.354;2022-12-18T02:57:13;95196.00;;;5.51;85.39
11692;BME280;33659;42.672;23.354;2022-12-18T02:59:47;95218.06;;;5.48;85.44
11692;BME280;33659;42.672;23.354;2022-12-18T03:02:21;95208.22;;;5.45;85.62
11692;BME280;33659;42.672;23.354;2022-12-18T03:04:55;95226.31;;;5.50;85.54
11692;BME280;33659;42.672;23.354;2022-12-18T03:07:30;95213.03;;;5.57;84.99
11692;BME280;33659;42.672;23.354;2022-12-18T03:10:01;95221.53;;;5.62;84.71
11692;BME280;33659;42.672;23.354;2022-12-18T03:12:32;95213.03;;;5.57;84.54
11692;BME280;33659;42.672;23.354;2022-12-18T03:15:04;95247.78;;;5.56;84.40
11692;BME280;33659;42.672;23.354;2022-12-18T03:17:34;95253.28;;;5.49;84.08
11692;BME280;33659;42.672;23.354;2022-12-18T03:20:06;95243.13;;;5.53;83.86
11692;BME280;33659;42.672;23.354;2022-12-18T03:22:35;95263.72;;;5.39;84.51
11692;BME280;33659;42.672;23.354;2022-12-18T03:25:06;95231.69;;;5.30;84.58
11692;BME280;33659;42.672;23.354;2022-12-18T03:27:38;95217.25;;;5.19;84.60
11692;BME280;33659;42.672;23.354;2022-12-18T03:30:09;95236.03;;;5.34;84.63
11692;BME280;33659;42.672;23.354;2022-12-18T03:32:41;95235.56;;;5.27;84.39
11692;BME280;33659;42.672;23.354;2022-12-18T03:35:10;95247.50;;;5.28;84.18
11692;BME280;33659;42.672;23.354;2022-12-18T03:37:39;95248.28;;;5.29;84.14
11692;BME280;33659;42.672;23.354;2022-12-18T03:40:06;95242.84;;;5.25;83.23
11692;BME280;33659;42.672;23.354;2022-12-18T03:42:39;95266.13;;;5.30;83.41
11692;BME280;33659;42.672;23.354;2022-12-18T03:45:13;95263.28;;;5.27;83.51
11692;BME280;33659;42.672;23.354;2022-12-18T03:47:47;95258.94;;;5.22;83.07
11692;BME280;33659;42.672;23.354;2022-12-18T03:50:19;95256.34;;;5.22;83.10
11692;BME280;33659;42.672;23.354;2022-12-18T03:52:49;95243.66;;;5.21;82.51
11692;BME280;33659;42.672;23.354;2022-12-18T03:55:19;95265.66;;;5.23;82.41
11692;BME280;33659;42.672;23.354;2022-12-18T03:57:49;95268.78;;;5.20;82.72
11692;BME280;33659;42.672;23.354;2022-12-18T04:00:18;95293.41;;;5.18;82.81
11692;BME280;33659;42.672;23.354;2022-12-18T04:02:48;95286.38;;;5.23;82.60
11692;BME280;33659;42.672;23.354;2022-12-18T04:05:18;95253.28;;;5.15;82.46
11692;BME280;33659;42.672;23.354;2022-12-18T04:07:47;95301.25;;;5.02;82.75
11692;BME280;33659;42.672;23.354;2022-12-18T04:10:15;95286.75;;;5.06;83.31
11692;BME280;33659;42.672;23.354;2022-12-18T04:12:42;95281.25;;;5.13;82.83
11692;BME280;33659;42.672;23.354;2022-12-18T04:15:11;95270.31;;;5.21;81.97
11692;BME280;33659;42.672;23.354;2022-12-18T04:17:38;95315.91;;;5.22;81.83
11692;BME280;33659;42.672;23.354;2022-12-18T04:20:06;95297.28;;;5.15;81.41
11692;BME280;33659;42.672;23.354;2022-12-18T04:22:33;95310.31;;;5.05;82.10
11692;BME280;33659;42.672;23.354;2022-12-18T04:25:00;95318.53;;;5.17;81.79
11692;BME280;33659;42.672;23.354;2022-12-18T04:27:27;95312.31;;;5.13;81.30
11692;BME280;33659;42.672;23.354;2022-12-18T04:29:54;95285.94;;;5.11;81.48
11692;BME280;33659;42.672;23.354;2022-12-18T04:32:22;95341.09;;;5.06;81.51
11692;BME280;33659;42.672;23.354;2022-12-18T04:34:49;95317.53;;;5.08;81.39
11692;BME280;33659;42.672;23.354;2022-12-18T04:37:15;95312.81;;;5.15;80.62
11692;BME280;33659;42.672;23.354;2022-12-18T04:39:42;95290.06;;;5.12;80.19
11692;BME280;33659;42.672;23.354;2022-12-18T04:42:09;95325.34;;;5.03;79.96
11692;BME280;33659;42.672;23.354;2022-12-18T04:44:36;95325.41;;;4.87;79.83
11692;BME280;33659;42.672;23.354;2022-12-18T04:47:03;95317.63;;;4.93;79.42
11692;BME280;33659;42.672;23.354;2022-12-18T04:49:31;95348.19;;;4.91;80.03
11692;BME280;33659;42.672;23.354;2022-12-18T04:51:58;95359.31;;;4.91;79.36
11692;BME280;33659;42.672;23.354;2022-12-18T04:54:24;95335.25;;;4.91;79.53
11692;BME280;33659;42.672;23.354;2022-12-18T04:56:51;95350.50;;;4.92;79.76
11692;BME280;33659;42.672;23.354;2022-12-18T04:59:18;95355.66;;;4.97;79.17
11692;BME280;33659;42.672;23.354;2022-12-18T05:01:44;95359.56;;;4.89;78.25
11692;BME280;33659;42.672;23.354;2022-12-18T05:04:11;95367.13;;;4.76;78.72
11692;BME280;33659;42.672;23.354;2022-12-18T05:06:39;95358.06;;;4.78;78.33
11692;BME280;33659;42.672;23.354;2022-12-18T05:09:06;95355.22;;;4.80;78.29
11692;BME280;33659;42.672;23.354;2022-12-18T05:11:33;95362.19;;;4.84;78.42
11692;BME280;33659;42.672;23.354;2022-12-18T05:13:59;95357.22;;;4.93;77.99
11692;BME280;33659;42.672;23.354;2022-12-18T05:16:26;95403.50;;;5.00;78.39
11692;BME280;33659;42.672;23.354;2022-12-18T05:18:52;95367.06;;;4.91;77.80
11692;BME280;33659;42.672;23.354;2022-12-18T05:21:19;95379.75;;;4.82;78.50
11692;BME280;33659;42.672;23.354;2022-12-18T05:23:47;95379.06;;;4.72;78.52
11692;BME280;33659;42.672;23.354;2022-12-18T05:26:16;95390.69;;;4.74;79.11
11692;BME280;33659;42.672;23.354;2022-12-18T05:28:43;95383.41;;;4.76;79.10
11692;BME280;33659;42.672;23.354;2022-12-18T05:31:10;95383.47;;;4.71;79.18
11692;BME280;33659;42.672;23.354;2022-12-18T05:33:37;95418.38;;;4.63;78.51
11692;BME280;33659;42.672;23.354;2022-12-18T05:36:05;95404.66;;;4.68;78.53
11692;BME280;33659;42.672;23.354;2022-12-18T05:38:34;95415.53;;;4.70;78.52
11692;BME280;33659;42.672;23.354;2022-12-18T05:41:03;95438.81;;;4.70;78.12
11692;BME280;33659;42.672;23.354;2022-12-18T05:43:29;95432.63;;;4.61;78.50
11692;BME280;33659;42.672;23.354;2022-12-18T05:45:56;95412.19;;;4.65;77.82
11692;BME280;33659;42.672;23.354;2022-12-18T05:48:23;95426.13;;;4.63;78.20
11692;BME280;33659;42.672;23.354;2022-12-18T05:50:50;95427.44;;;4.61;78.23
11692;BME280;33659;42.672;23.354;2022-12-18T05:53:19;95435.50;;;4.54;78.34
11692;BME280;33659;42.672;23.354;2022-12-18T05:55:46;95400.09;;;4.34;78.21
11692;BME280;33659;42.672;23.354;2022-12-18T05:58:15;95404.47;;;4.44;78.52
11692;BME280;33659;42.672;23.354;2022-12-18T06:00:44;95446.91;;;4.38;78.36
11692;BME280;33659;42.672;23.354;2022-12-18T06:03:12;95431.13;;;4.34;78.01
11692;BME280;33659;42.672;23.354;2022-12-18T06:05:42;95428.53;;;4.40;77.62
11692;BME280;33659;42.672;23.354;2022-12-18T06:08:09;95445.59;;;4.35;77.73
11692;BME280;33659;42.672;23.354;2022-12-18T06:10:36;95450.78;;;4.30;77.49
11692;BME280;33659;42.672;23.354;2022-12-18T06:13:03;95428.56;;;3.99;78.27
11692;BME280;33659;42.672;23.354;2022-12-18T06:15:31;95461.13;;;4.10;78.58
11692;BME280;33659;42.672;23.354;2022-12-18T06:17:59;95426.50;;;4.11;78.35
11692;BME280;33659;42.672;23.354;2022-12-18T06:20:26;95458.53;;;4.15;78.90
11692;BME280;33659;42.672;23.354;2022-12-18T06:22:53;95435.28;;;4.20;78.37
11692;BME280;33659;42.672;23.354;2022-12-18T06:25:19;95462.41;;;4.18;78.25
11692;BME280;33659;42.672;23.354;2022-12-18T06:27:47;95434.75;;;4.18;78.42
11692;BME280;33659;42.672;23.354;2022-12-18T06:30:14;95426.50;;;4.21;78.40
11692;BME280;33659;42.672;23.354;2022-12-18T06:32:42;95443.53;;;4.22;78.53
11692;BME280;33659;42.672;23.354;2022-12-18T06:35:08;95461.13;;;4.20;78.46
11692;BME280;33659;42.672;23.354;2022-12-18T06:37:35;95438.66;;;4.26;78.50
11692;BME280;33659;42.672;23.354;2022-12-18T06:40:02;95467.59;;;4.33;78.24
11692;BME280;33659;42.672;23.354;2022-12-18T06:42:30;95472.50;;;4.45;78.03
11692;BME280;33659;42.672;23.354;2022-12-18T06:44:57;95473.00;;;4.42;78.12
11692;BME280;33659;42.672;23.354;2022-12-18T06:47:24;95482.31;;;4.48;77.37
11692;BME280;33659;42.672;23.354;2022-12-18T06:49:52;95468.34;;;4.49;77.82
11692;BME280;33659;42.672;23.354;2022-12-18T06:52:18;95493.94;;;4.55;77.21
11692;BME280;33659;42.672;23.354;2022-12-18T06:54:45;95474.56;;;4.48;77.11
11692;BME280;33659;42.672;23.354;2022-12-18T06:57:11;95468.34;;;4.44;77.02
11692;BME280;33659;42.672;23.354;2022-12-18T06:59:38;95465.50;;;4.40;75.82
11692;BME280;33659;42.672;23.354;2022-12-18T07:02:05;95491.63;;;4.33;75.91
11692;BME280;33659;42.672;23.354;2022-12-18T07:04:32;95495.25;;;4.38;75.72
11692;BME280;33659;42.672;23.354;2022-12-18T07:07:00;95478.94;;;4.37;75.57
11692;BME280;33659;42.672;23.354;2022-12-18T07:09:26;95491.66;;;4.39;75.33
11692;BME280;33659;42.672;23.354;2022-12-18T07:11:53;95498.84;;;4.31;75.47
11692;BME280;33659;42.672;23.354;2022-12-18T07:14:20;95479.72;;;4.43;78.32
11692;BME280;33659;42.672;23.354;2022-12-18T07:16:47;95483.31;;;4.57;76.63
11692;BME280;33659;42.672;23.354;2022-12-18T07:19:14;95496.03;;;4.48;75.68
11692;BME280;33659;42.672;23.354;2022-12-18T07:21:40;95512.84;;;4.46;75.27
11692;BME280;33659;42.672;23.354;2022-12-18T07:24:08;95511.56;;;4.38;75.45
11692;BME280;33659;42.672;23.354;2022-12-18T07:26:35;95511.53;;;4.28;75.77
11692;BME280;33659;42.672;23.354;2022-12-18T07:29:02;95505.09;;;4.25;75.78
11692;BME280;33659;42.672;23.354;2022-12-18T07:31:28;95491.63;;;4.28;75.92
11692;BME280;33659;42.672;23.354;2022-12-18T07:33:55;95502.50;;;4.20;76.38
11692;BME280;33659;42.672;23.354;2022-12-18T07:36:22;95508.69;;;4.14;76.47
11692;BME280;33659;42.672;23.354;2022-12-18T07:38:49;95516.94;;;4.11;76.18
11692;BME280;33659;42.672;23.354;2022-12-18T07:41:18;95505.59;;;4.17;76.29
11692;BME280;33659;42.672;23.354;2022-12-18T07:43:45;95490.06;;;4.17;76.69
11692;BME280;33659;42.672;23.354;2022-12-18T07:46:13;95517.25;;;4.20;76.07
11692;BME280;33659;42.672;23.354;2022-12-18T07:48:40;95520.31;;;4.17;76.57
11692;BME280;33659;42.672;23.354;2022-12-18T07:51:07;95515.94;;;4.17;76.52
11692;BME280;33659;42.672;23.354;2022-12-18T07:53:35;95570.47;;;4.16;77.01
11692;BME280;33659;42.672;23.354;2022-12-18T07:56:04;95537.16;;;4.19;76.37
11692;BME280;33659;42.672;23.354;2022-12-18T07:58:33;95535.84;;;4.22;76.35
11692;BME280;33659;42.672;23.354;2022-12-18T08:01:04;95544.63;;;4.16;76.48
11692;BME280;33659;42.672;23.354;2022-12-18T08:03:31;95523.44;;;4.08;76.71
11692;BME280;33659;42.672;23.354;2022-12-18T08:05:59;95572.53;;;4.03;76.92
11692;BME280;33659;42.672;23.354;2022-12-18T08:08:26;95569.41;;;4.01;77.30
11692;BME280;33659;42.672;23.354;2022-12-18T08:10:53;95562.69;;;3.95;77.83
11692;BME280;33659;42.672;23.354;2022-12-18T08:13:20;95549.25;;;3.98;77.61
11692;BME280;33659;42.672;23.354;2022-12-18T08:15:55;95549.00;;;3.95;78.42
11692;BME280;33659;42.672;23.354;2022-12-18T08:18:22;95567.84;;;4.05;77.67
11692;BME280;33659;42.672;23.354;2022-12-18T08:20:48;95569.16;;;4.03;77.46
11692;BME280;33659;42.672;23.354;2022-12-18T08:23:15;95592.91;;;3.95;77.88
11692;BME280;33659;42.672;23.354;2022-12-18T08:25:42;95573.53;;;3.92;77.09
11692;BME280;33659;42.672;23.354;2022-12-18T08:28:09;95587.22;;;3.88;77.13
11692;BME280;33659;42.672;23.354;2022-12-18T08:30:36;95588.78;;;3.99;76.81
11692;BME280;33659;42.672;23.354;2022-12-18T08:33:04;95613.06;;;3.98;76.55
11692;BME280;33659;42.672;23.354;2022-12-18T08:35:34;95597.03;;;3.91;76.94
11692;BME280;33659;42.672;23.354;2022-12-18T08:38:01;95600.66;;;3.90;77.43
11692;BME280;33659;42.672;23.354;2022-12-18T08:40:28;95589.28;;;3.91;76.85
11692;BME280;33659;42.672;23.354;2022-12-18T08:42:55;95578.19;;;3.95;76.61
11692;BME280;33659;42.672;23.354;2022-12-18T08:45:39;95591.88;;;3.96;76.63
11692;BME280;33659;42.672;23.354;2022-12-18T08:48:07;95609.97;;;3.96;76.62
11692;BME280;33659;42.672;23.354;2022-12-18T08:50:33;95578.97;;;4.01;76.30
11692;BME280;33659;42.672;23.354;2022-12-18T08:53:00;95611.28;;;4.03;76.35
11692;BME280;33659;42.672;23.354;2022-12-18T08:55:27;95620.09;;;4.07;75.46
11692;BME280;33659;42.672;23.354;2022-12-18T08:57:54;95600.44;;;4.06;75.84
11692;BME280;33659;42.672;23.354;2022-12-18T09:00:21;95598.91;;;4.11;75.14
11692;BME280;33659;42.672;23.354;2022-12-18T09:02:48;95613.34;;;4.01;74.87
11692;BME280;33659;42.672;23.354;2022-12-18T09:05:16;95593.44;;;4.02;74.70
11692;BME280;33659;42.672;23.354;2022-12-18T09:07:42;95584.66;;;4.03;74.35
11692;BME280;33659;42.672;23.354;2022-12-18T09:10:09;95591.66;;;4.02;74.02
11692;BME280;33659;42.672;23.354;2022-12-18T09:12:35;95564.50;;;4.00;73.57
11692;BME280;33659;42.672;23.354;2022-12-18T09:15:03;95576.88;;;3.98;73.73
11692;BME280;33659;42.672;23.354;2022-12-18T09:17:30;95583.09;;;3.92;74.06
11692;BME280;33659;42.672;23.354;2022-12-18T09:19:56;95579.47;;;3.98;73.10
11692;BME280;33659;42.672;23.354;2022-12-18T09:22:24;95605.31;;;3.93;72.79
11692;BME280;33659;42.672;23.354;2022-12-18T09:24:51;95588.78;;;3.99;73.28
11692;BME280;33659;42.672;23.354;2022-12-18T09:27:17;95596.84;;;4.07;72.77
11692;BME280;33659;42.672;23.354;2022-12-18T09:29:44;95600.19;;;4.08;72.44
11692;BME280;33659;42.672;23.354;2022-12-18T09:32:11;95609.22;;;4.05;71.82
11692;BME280;33659;42.672;23.354;2022-12-18T09:34:37;95585.72;;;4.07;72.13
11692;BME280;33659;42.672;23.354;2022-12-18T09:37:04;95584.94;;;4.06;72.51
11692;BME280;33659;42.672;23.354;2022-12-18T09:39:32;95597.13;;;4.21;72.31
11692;BME280;33659;42.672;23.354;2022-12-18T09:41:59;95592.72;;;4.22;72.38
11692;BME280;33659;42.672;23.354;2022-12-18T09:44:28;95587.81;;;4.25;71.29
11692;BME280;33659;42.672;23.354;2022-12-18T09:47:10;95619.09;;;4.19;71.46
11692;BME280;33659;42.672;23.354;2022-12-18T09:49:42;95591.69;;;4.23;72.00
11692;BME280;33659;42.672;23.354;2022-12-18T09:52:12;95597.13;;;4.31;71.52
11692;BME280;33659;42.672;23.354;2022-12-18T09:54:44;95596.09;;;4.32;70.93
11692;BME280;33659;42.672;23.354;2022-12-18T09:57:14;95595.31;;;4.27;70.83
11692;BME280;33659;42.672;23.354;2022-12-18T09:59:42;95575.66;;;4.31;70.89
11692;BME280;33659;42.672;23.354;2022-12-18T10:02:14;95607.25;;;4.38;70.37
11692;BME280;33659;42.672;23.354;2022-12-18T10:04:41;95600.25;;;4.39;71.16
11692;BME280;33659;42.672;23.354;2022-12-18T10:07:14;95603.34;;;4.41;70.09
11692;BME280;33659;42.672;23.354;2022-12-18T10:09:47;95606.97;;;4.50;70.27
11692;BME280;33659;42.672;23.354;2022-12-18T10:12:21;95581.09;;;4.50;69.53
11692;BME280;33659;42.672;23.354;2022-12-18T10:14:53;95599.22;;;4.50;69.35
11692;BME280;33659;42.672;23.354;2022-12-18T10:17:26;95583.44;;;4.46;69.85
11692;BME280;33659;42.672;23.354;2022-12-18T10:19:59;95616.28;;;4.41;69.11
11692;BME280;33659;42.672;23.354;2022-12-18T10:22:47;95605.41;;;4.44;69.43
11692;BME280;33659;42.672;23.354;2022-12-18T10:25:22;95597.66;;;4.54;68.98
11692;BME280;33659;42.672;23.354;2022-12-18T10:27:52;95592.50;;;4.64;68.64
11692;BME280;33659;42.672;23.354;2022-12-18T10:30:21;95619.69;;;4.77;68.41
11692;BME280;33659;42.672;23.354;2022-12-18T10:32:48;95606.47;;;4.78;68.84
11692;BME280;33659;42.672;23.354;2022-12-18T10:35:19;95606.19;;;5.00;67.83
11692;BME280;33659;42.672;23.354;2022-12-18T10:38:07;95601.78;;;4.96;67.78
11692;BME280;33659;42.672;23.354;2022-12-18T10:40:52;95601.28;;;4.99;68.10
11692;BME280;33659;42.672;23.354;2022-12-18T10:43:21;95605.44;;;4.84;68.04
11692;BME280;33659;42.672;23.354;2022-12-18T10:46:04;95592.75;;;4.88;68.08
11692;BME280;33659;42.672;23.354;2022-12-18T10:48:40;95604.94;;;4.77;68.80
11692;BME280;33659;42.672;23.354;2022-12-18T10:51:20;95593.00;;;4.76;69.13
11692;BME280;33659;42.672;23.354;2022-12-18T10:53:52;95590.16;;;4.68;68.98
11692;BME280;33659;42.672;23.354;2022-12-18T10:56:24;95622.50;;;4.65;69.03
11692;BME280;33659;42.672;23.354;2022-12-18T10:58:56;95601.81;;;4.70;68.81
11692;BME280;33659;42.672;23.354;2022-12-18T11:01:23;95589.63;;;4.81;68.87
11692;BME280;33659;42.672;23.354;2022-12-18T11:03:59;95601.53;;;4.92;69.30
11692;BME280;33659;42.672;23.354;2022-12-18T11:06:26;95601.28;;;4.99;68.82
11692;BME280;33659;42.672;23.354;2022-12-18T11:08:58;95619.66;;;4.97;68.32
11692;BME280;33659;42.672;23.354;2022-12-18T11:11:27;95604.63;;;4.94;68.24
11692;BME280;33659;42.672;23.354;2022-12-18T11:14:02;95594.81;;;4.86;67.70
11692;BME280;33659;42.672;23.354;2022-12-18T11:16:32;95587.56;;;4.93;67.70
11692;BME280;33659;42.672;23.354;2022-12-18T11:19:20;95615.25;;;4.98;67.01
11692;BME280;33659;42.672;23.354;2022-12-18T11:21:49;95626.91;;;5.00;66.14
11692;BME280;33659;42.672;23.354;2022-12-18T11:24:24;95602.06;;;4.94;66.51
11692;BME280;33659;42.672;23.354;2022-12-18T11:26:55;95611.13;;;4.97;66.77
11692;BME280;33659;42.672;23.354;2022-12-18T11:29:26;95619.91;;;5.11;66.60
11692;BME280;33659;42.672;23.354;2022-12-18T11:32:20;95605.91;;;5.12;66.37
11692;BME280;33659;42.672;23.354;2022-12-18T11:34:50;95603.88;;;5.04;66.59
11692;BME280;33659;42.672;23.354;2022-12-18T11:37:19;95595.59;;;4.97;66.78
11692;BME280;33659;42.672;23.354;2022-12-18T11:39:50;95604.91;;;4.87;67.46
11692;BME280;33659;42.672;23.354;2022-12-18T11:42:24;95601.03;;;4.85;67.81
11692;BME280;33659;42.672;23.354;2022-12-18T11:44:58;95615.78;;;5.05;67.15
11692;BME280;33659;42.672;23.354;2022-12-18T11:47:29;95598.69;;;5.09;67.49
11692;BME280;33659;42.672;23.354;2022-12-18T11:50:01;95596.59;;;5.06;67.33
11692;BME280;33659;42.672;23.354;2022-12-18T11:52:33;95608.25;;;5.08;67.23
11692;BME280;33659;42.672;23.354;2022-12-18T11:55:10;95617.59;;;5.09;67.03
11692;BME280;33659;42.672;23.354;2022-12-18T11:57:45;95602.81;;;5.05;66.40
11692;BME280;33659;42.672;23.354;2022-12-18T12:00:18;95591.19;;;4.97;66.13
11692;BME280;33659;42.672;23.354;2022-12-18T12:03:14;95599.19;;;5.01;66.45
11692;BME280;33659;42.672;23.354;2022-12-18T12:06:02;95610.06;;;5.08;66.08
11692;BME280;33659;42.672;23.354;2022-12-18T12:08:45;95604.88;;;5.08;65.87
11692;BME280;33659;42.672;23.354;2022-12-18T12:11:22;95601.78;;;5.06;66.18
11692;BME280;33659;42.672;23.354;2022-12-18T12:14:05;95605.41;;;5.05;66.50
11692;BME280;33659;42.672;23.354;2022-12-18T12:16:39;95594.53;;;5.08;66.88
11692;BME280;33659;42.672;23.354;2022-12-18T12:19:22;95606.66;;;5.28;66.38
11692;BME280;33659;42.672;23.354;2022-12-18T12:21:59;95626.09;;;5.20;65.98
11692;BME280;33659;42.672;23.354;2022-12-18T12:24:38;95625.06;;;5.21;66.44
11692;BME280;33659;42.672;23.354;2022-12-18T12:27:12;95599.69;;;5.23;66.58
11692;BME280;33659;42.672;23.354;2022-12-18T12:29:54;95595.00;;;5.30;66.54
11692;BME280;33659;42.672;23.354;2022-12-18T12:32:38;95607.69;;;5.32;66.03
11692;BME280;33659;42.672;23.354;2022-12-18T12:35:19;95615.50;;;5.22;65.95
11692;BME280;33659;42.672;23.354;2022-12-18T12:37:58;95629.22;;;5.17;66.43
11692;BME280;33659;42.672;23.354;2022-12-18T12:40:30;95622.47;;;5.21;66.46
11692;BME280;33659;42.672;23.354;2022-12-18T12:43:02;95613.91;;;5.26;66.18
11692;BME280;33659;42.672;23.354;2022-12-18T12:45:44;95600.47;;;5.29;66.51
11692;BME280;33659;42.672;23.354;2022-12-18T12:48:18;95596.03;;;5.34;66.38
11692;BME280;33659;42.672;23.354;2022-12-18T12:50:47;95606.38;;;5.39;66.53
11692;BME280;33659;42.672;23.354;2022-12-18T12:53:22;95611.28;;;5.46;66.84
11692;BME280;33659;42.672;23.354;2022-12-18T12:55:50;95622.13;;;5.53;66.55
11692;BME280;33659;42.672;23.354;2022-12-18T12:58:25;95622.38;;;5.67;65.96
11692;BME280;33659;42.672;23.354;2022-12-18T13:01:01;95624.41;;;5.80;65.73
11692;BME280;33659;42.672;23.354;2022-12-18T13:03:38;95628.50;;;5.91;65.69
11692;BME280;33659;42.672;23.354;2022-12-18T13:06:12;95633.69;;;5.96;65.12
11692;BME280;33659;42.672;23.354;2022-12-18T13:08:54;95638.38;;;5.94;64.88
11692;BME280;33659;42.672;23.354;2022-12-18T13:11:35;95614.06;;;5.65;65.27
11692;BME280;33659;42.672;23.354;2022-12-18T13:14:22;95632.19;;;5.75;65.51
11692;BME280;33659;42.672;23.354;2022-12-18T13:16:51;95636.06;;;5.78;65.02